createdAt,value
2019-04-05T18:15:51.874Z,-40.00
2019-04-05T18:16:40.626Z,-40.00
2019-04-05T18:17:21.602Z,6.14
2019-04-05T18:18:21.575Z,6.19
2019-04-05T18:19:21.550Z,6.14
2019-04-05T18:20:21.529Z,6.10
2019-04-05T18:21:23.002Z,6.13
2019-04-05T18:22:21.476Z,6.04
2019-04-05T18:23:25.179Z,6.07
2019-04-05T18:24:21.427Z,5.98
2019-04-05T18:25:21.401Z,5.92
2019-04-05T18:26:21.376Z,5.86
2019-04-05T18:27:22.852Z,5.71
2019-04-05T18:28:21.325Z,5.56
2019-04-05T18:29:21.301Z,5.70
2019-04-05T18:30:21.274Z,5.59
2019-04-05T18:31:21.248Z,5.59
2019-04-05T18:32:21.225Z,5.49
2019-04-05T18:33:21.197Z,5.49
2019-04-05T18:34:21.173Z,5.70
2019-04-05T18:35:21.146Z,5.70
2019-04-05T18:36:21.119Z,5.63
2019-04-05T18:37:21.093Z,5.49
2019-04-05T18:38:21.067Z,5.48
2019-04-05T18:39:21.040Z,5.49
2019-04-05T18:40:21.014Z,5.56
2019-04-05T18:41:20.989Z,5.49
2019-04-05T18:42:20.961Z,5.73
2019-04-05T18:43:20.934Z,5.14
2019-04-05T18:44:21.659Z,5.23
2019-04-05T18:45:20.881Z,5.27
2019-04-05T18:46:20.854Z,5.45
2019-04-05T18:47:20.899Z,5.57
2019-04-05T18:48:20.805Z,5.78
2019-04-05T18:49:20.774Z,5.75
2019-04-05T18:50:20.755Z,5.81
2019-04-05T18:51:20.722Z,5.95
2019-04-05T18:52:20.694Z,6.04
2019-04-05T18:53:20.665Z,6.03
2019-04-05T18:54:20.639Z,6.06
2019-04-05T18:55:20.613Z,6.14
2019-04-05T18:56:20.584Z,6.09
2019-04-05T18:57:20.558Z,6.16
2019-04-05T18:58:20.531Z,6.10
2019-04-05T18:59:20.510Z,6.13
2019-04-05T19:00:20.515Z,6.03
2019-04-05T19:01:20.450Z,5.83
2019-04-05T19:02:20.423Z,5.68
2019-04-05T19:03:20.395Z,5.41
2019-04-05T19:04:20.368Z,5.45
2019-04-05T19:05:21.092Z,5.16
2019-04-05T19:06:20.318Z,5.25
2019-04-05T19:07:22.313Z,5.23
2019-04-05T19:08:20.260Z,5.20
2019-04-05T19:09:20.232Z,5.23
2019-04-05T19:10:20.205Z,5.35
2019-04-05T19:11:20.180Z,5.89
2019-04-05T19:12:20.150Z,5.81
2019-04-05T19:13:20.124Z,5.67
2019-04-05T19:14:20.099Z,5.59
2019-04-05T19:15:20.066Z,5.63
2019-04-05T19:16:20.789Z,5.67
2019-04-05T19:17:24.266Z,5.91
2019-04-05T19:18:20.003Z,5.92
2019-04-05T19:19:19.956Z,5.78
2019-04-05T19:20:19.930Z,5.81
2019-04-05T19:21:19.903Z,5.96
2019-04-05T19:22:19.902Z,5.89
2019-04-05T19:23:19.849Z,6.11
2019-04-05T19:24:19.821Z,6.09
2019-04-05T19:25:19.794Z,6.03
2019-04-05T19:26:19.765Z,6.01
2019-04-05T19:27:19.738Z,6.07
2019-04-05T19:28:19.710Z,5.91
2019-04-05T19:29:19.683Z,5.88
2019-04-05T19:48:35.556Z,6.10
2019-04-05T19:49:19.138Z,6.22
2019-04-05T19:50:19.110Z,5.88
2019-04-05T19:51:19.080Z,6.26
2019-04-05T19:52:19.052Z,5.95
2019-04-05T19:53:19.026Z,6.16
2019-04-05T19:54:18.998Z,6.07
2019-04-05T19:55:18.970Z,6.03
2019-04-05T19:56:18.944Z,5.78
2019-04-05T19:57:18.917Z,5.88
2019-04-05T19:58:18.890Z,5.85
2019-04-05T19:59:18.861Z,5.82
2019-04-05T20:00:18.834Z,5.92
2019-04-05T20:01:18.807Z,5.81
2019-04-05T20:02:18.779Z,5.91
2019-04-05T20:03:18.751Z,5.86
2019-04-05T20:04:18.724Z,5.78
2019-04-05T20:05:18.697Z,5.81
2019-04-05T20:06:18.674Z,5.78
2019-04-05T20:07:18.641Z,5.78
2019-04-05T20:08:18.613Z,5.83
2019-04-05T20:09:18.585Z,5.85
2019-04-05T20:10:18.560Z,5.78
2019-04-05T20:11:18.531Z,5.86
2019-04-05T20:12:18.503Z,5.78
2019-04-05T20:13:18.475Z,5.78
2019-04-05T20:14:18.449Z,5.77
2019-04-05T20:15:18.428Z,5.71
2019-04-05T20:16:18.393Z,5.81
2019-04-05T20:17:18.366Z,5.91
2019-04-05T20:18:18.339Z,5.89
2019-04-05T20:19:18.311Z,5.95
2019-04-05T20:20:18.283Z,6.03
2019-04-05T20:21:18.256Z,6.01
2019-04-05T20:22:18.227Z,6.01
2019-04-05T20:23:18.199Z,5.85
2019-04-05T20:24:18.173Z,6.11
2019-04-05T20:25:18.146Z,6.10
2019-04-05T20:26:18.118Z,5.85
2019-04-05T20:27:18.090Z,5.88
2019-04-05T20:28:18.062Z,5.83
2019-04-05T20:29:18.035Z,5.70
2019-04-05T20:30:18.010Z,5.68
2019-04-05T20:31:17.979Z,5.57
2019-04-05T20:32:22.455Z,5.60
2019-04-05T20:33:17.924Z,5.53
2019-04-05T20:34:17.896Z,5.55
2019-04-05T20:35:17.866Z,5.45
2019-04-05T20:36:17.839Z,5.32
2019-04-05T20:37:17.813Z,5.30
2019-04-05T20:38:17.786Z,5.25
2019-04-05T20:39:17.757Z,5.13
2019-04-05T20:40:17.729Z,5.09
2019-04-05T20:41:17.702Z,4.92
2019-04-05T20:42:17.674Z,5.02
2019-04-05T20:43:17.646Z,4.64
2019-04-05T20:44:17.630Z,4.64
2019-04-05T20:45:17.591Z,4.83
2019-04-05T20:46:17.564Z,4.76
2019-04-05T20:47:17.535Z,4.96
2019-04-05T20:48:17.507Z,4.99
2019-04-05T20:49:20.482Z,4.99
2019-04-05T20:50:17.453Z,4.89
2019-04-05T20:51:17.422Z,4.70
2019-04-05T20:52:17.396Z,4.73
2019-04-05T20:53:17.367Z,4.69
2019-04-05T20:54:24.616Z,4.62
2019-04-05T20:55:17.315Z,4.67
2019-04-05T20:56:17.284Z,4.67
2019-04-05T20:57:17.257Z,4.67
2019-04-05T20:58:17.233Z,4.62
2019-04-05T20:59:17.200Z,4.42
2019-04-05T21:00:17.173Z,4.65
2019-04-05T21:01:17.143Z,4.54
2019-04-05T21:02:17.115Z,4.64
2019-04-05T21:03:17.086Z,4.62
2019-04-05T21:04:17.057Z,4.58
2019-04-05T21:05:24.990Z,4.51
2019-04-05T21:06:17.289Z,4.40
2019-04-05T21:07:16.974Z,4.44
2019-04-05T21:08:16.945Z,4.42
2019-04-05T21:09:16.916Z,4.40
2019-04-05T21:10:16.889Z,4.26
2019-04-05T21:11:16.860Z,4.21
2019-04-05T21:12:16.832Z,4.22
2019-04-05T21:13:16.806Z,4.16
2019-04-05T21:14:16.776Z,4.33
2019-04-05T21:15:16.747Z,4.26
2019-04-05T21:16:16.722Z,4.32
2019-04-05T21:17:16.690Z,4.25
2019-04-05T21:18:16.665Z,4.26
2019-04-05T21:19:16.633Z,4.16
2019-04-05T21:20:16.608Z,4.18
2019-04-05T21:21:16.579Z,4.25
2019-04-05T21:22:16.550Z,4.29
2019-04-05T21:23:16.519Z,4.14
2019-04-05T21:24:16.497Z,4.18
2019-04-05T21:25:16.462Z,4.06
2019-04-05T21:26:16.436Z,4.08
2019-04-05T21:27:16.411Z,4.07
2019-04-05T21:28:16.382Z,4.14
2019-04-05T21:29:16.351Z,4.12
2019-04-05T21:30:16.321Z,4.10
2019-04-05T21:31:16.290Z,4.15
2019-04-05T21:32:16.262Z,4.08
2019-04-05T21:33:17.736Z,4.12
2019-04-05T21:34:16.212Z,4.04
2019-04-05T21:35:16.177Z,4.03
2019-04-05T21:36:16.148Z,4.08
2019-04-05T21:37:16.121Z,3.94
2019-04-05T21:38:16.093Z,4.10
2019-04-05T21:39:16.064Z,4.04
2019-04-05T21:40:16.034Z,4.01
2019-04-05T21:41:16.006Z,4.07
2019-04-05T21:42:15.981Z,3.89
2019-04-05T21:43:15.948Z,3.92
2019-04-05T21:44:15.920Z,3.92
2019-04-05T21:45:15.892Z,3.92
2019-04-05T21:46:15.864Z,3.86
2019-04-05T21:47:15.834Z,4.03
2019-04-05T21:48:15.806Z,4.04
2019-04-05T21:49:15.777Z,3.98
2019-04-05T21:50:15.754Z,3.86
2019-04-05T21:51:15.720Z,4.00
2019-04-05T21:52:15.693Z,3.88
2019-04-05T21:53:15.665Z,3.98
2019-04-05T21:54:15.636Z,3.89
2019-04-05T21:55:15.606Z,3.92
2019-04-05T21:56:15.576Z,3.86
2019-04-05T21:57:15.550Z,3.85
2019-04-05T21:58:15.522Z,4.07
2019-04-05T21:59:15.491Z,4.14
2019-04-05T22:00:15.470Z,4.25
2019-04-05T22:01:15.438Z,4.14
2019-04-05T22:02:15.407Z,4.15
2019-04-05T22:03:15.377Z,3.68
2019-04-05T22:04:15.348Z,4.07
2019-04-05T22:05:16.070Z,4.16
2019-04-05T22:06:15.291Z,4.00
2019-04-05T22:07:15.262Z,4.04
2019-04-05T22:08:15.234Z,3.96
2019-04-05T22:09:15.205Z,4.00
2019-04-05T22:10:15.182Z,4.12
2019-04-05T22:11:15.146Z,3.86
2019-04-05T22:12:15.122Z,3.96
2019-04-05T22:13:15.092Z,4.03
2019-04-05T22:14:15.062Z,3.47
2019-04-05T22:15:15.032Z,3.47
2019-04-05T22:16:15.003Z,3.68
2019-04-05T22:17:14.975Z,3.57
2019-04-05T22:18:14.947Z,3.82
2019-04-05T22:19:14.917Z,3.61
2019-04-05T22:20:14.888Z,3.68
2019-04-05T22:21:14.859Z,3.54
2019-04-05T22:22:14.832Z,3.57
2019-04-05T22:23:14.803Z,3.50
2019-04-05T22:24:14.776Z,3.57
2019-04-05T22:25:14.745Z,3.53
2019-04-05T22:26:14.717Z,3.65
2019-04-05T22:27:14.687Z,3.68
2019-04-05T22:28:14.662Z,3.72
2019-04-05T22:29:14.634Z,3.62
2019-04-05T22:30:14.601Z,3.65
2019-04-05T22:31:14.571Z,3.57
2019-04-05T22:32:14.548Z,3.52
2019-04-05T22:33:14.515Z,3.49
2019-04-05T22:34:14.486Z,3.39
2019-04-05T22:35:14.457Z,3.36
2019-04-05T22:36:14.430Z,3.60
2019-04-05T22:37:14.407Z,3.52
2019-04-05T22:38:14.371Z,3.57
2019-04-05T22:39:14.342Z,3.61
2019-04-05T22:40:14.317Z,3.54
2019-04-05T22:41:14.285Z,3.31
2019-04-05T22:42:14.258Z,3.24
2019-04-05T22:43:14.226Z,3.20
2019-04-05T22:44:14.198Z,3.23
2019-04-05T22:45:14.170Z,3.21
2019-04-05T22:46:14.140Z,3.20
2019-04-05T22:47:14.112Z,3.12
2019-04-05T22:48:14.082Z,3.18
2019-04-05T22:49:14.055Z,3.25
2019-04-05T22:50:14.026Z,3.23
2019-04-05T22:51:13.995Z,3.12
2019-04-05T22:52:13.967Z,3.03
2019-04-05T22:53:14.687Z,3.07
2019-04-05T22:54:13.909Z,3.10
2019-04-05T22:55:13.879Z,3.16
2019-04-05T22:56:13.854Z,3.23
2019-04-05T22:57:13.821Z,3.21
2019-04-05T22:58:13.794Z,3.12
2019-04-05T22:59:13.763Z,3.07
2019-04-05T23:00:13.734Z,3.05
2019-04-05T23:01:13.705Z,3.02
2019-04-05T23:02:13.676Z,3.06
2019-04-05T23:03:13.646Z,3.05
2019-04-05T23:04:13.618Z,2.95
2019-04-05T23:05:13.589Z,3.00
2019-04-05T23:06:13.561Z,3.05
2019-04-05T23:07:13.531Z,3.13
2019-04-05T23:08:13.500Z,3.18
2019-04-05T23:09:14.973Z,3.13
2019-04-05T23:10:13.443Z,3.18
2019-04-05T23:11:13.411Z,3.15
2019-04-05T23:12:13.382Z,3.21
2019-04-05T23:13:13.364Z,3.20
2019-04-05T23:14:13.324Z,3.28
2019-04-05T23:15:13.295Z,3.16
2019-04-05T23:16:13.267Z,3.02
2019-04-05T23:17:13.237Z,3.03
2019-04-05T23:18:13.209Z,3.03
2019-04-05T23:19:13.178Z,3.02
2019-04-05T23:20:13.150Z,3.13
2019-04-05T23:21:13.120Z,3.30
2019-04-05T23:22:13.090Z,3.20
2019-04-05T23:23:13.061Z,3.30
2019-04-05T23:24:13.031Z,3.25
2019-04-05T23:25:21.511Z,3.20
2019-04-05T23:26:12.974Z,3.05
2019-04-05T23:27:12.950Z,2.81
2019-04-05T23:28:12.913Z,2.85
2019-04-05T23:29:12.885Z,2.82
2019-04-05T23:30:12.902Z,2.77
2019-04-05T23:31:12.827Z,2.79
2019-04-05T23:32:12.797Z,2.74
2019-04-05T23:33:12.767Z,2.64
2019-04-05T23:34:12.739Z,2.76
2019-04-05T23:35:12.709Z,2.76
2019-04-05T23:36:12.718Z,2.82
2019-04-05T23:37:12.649Z,2.87
2019-04-05T23:38:12.627Z,2.87
2019-04-05T23:39:12.591Z,2.81
2019-04-05T23:40:12.561Z,2.91
2019-04-05T23:41:12.532Z,2.82
2019-04-05T23:42:12.504Z,2.89
2019-04-05T23:43:12.473Z,3.00
2019-04-05T23:44:12.444Z,2.98
2019-04-05T23:45:12.415Z,3.03
2019-04-05T23:46:12.386Z,2.98
2019-04-05T23:47:12.355Z,2.89
2019-04-05T23:48:12.329Z,2.94
2019-04-05T23:49:12.297Z,2.92
2019-04-05T23:50:12.270Z,2.82
2019-04-05T23:51:12.238Z,2.76
2019-04-05T23:52:12.208Z,2.74
2019-04-05T23:53:12.179Z,2.76
2019-04-05T23:54:12.158Z,2.74
2019-04-05T23:55:12.119Z,2.84
2019-04-05T23:56:12.117Z,2.82
2019-04-05T23:57:12.059Z,2.88
2019-04-05T23:58:12.030Z,2.97
2019-04-05T23:59:12.005Z,3.00
